Pine Apple, Alabama
Current Conditions -  °F | °C
As of 1:56 PM on Saturday 25 Oct 2014 (Local Time) from KPRN Reporting Station
Clear Clear  
Wind Chill: 77°   Ceiling: Unl
Heat Index: 78°   Visibility: 10mi
Dew Point: 45°   Wind: 9mph
Humidity: 32%   Direction: 350°N
Pressure: 30.05"   Gusts: NA
Location:  31.87°N, 86.99°W
Report Text: KPRN 251856Z AUTO 35008KT 10SM CLR 25/07 A3005 RMK AO2 SLP173 T02500072
Loading
Personal Weather Stations






























Interactive Weather Map
Tropical Storm Tracking
New forecast layout! Learn more

10-Day Weather Forecast

Advertisements
Track Severe Weather on mobile